• Join FlightAware (Why Join?)
  • Login
  • US Flag 
09:01AM EST


 

Airport Tracker/Info


-or-


 

Live Flight TrackerFlight Track Log ✈ N225SB ✈ 03-Nov-2013 ✈ MYNN / NAS - KFTY

Flight Track Log - Related Links

Times and Time Zones

All times are in EST time to prevent confusion due to time zone crossing. See the N225SB flight status page for this flight to view local times or setup timezone preferences in your user account.

Time Position Orientation Groundspeed Altitude Reporting Facility
EST Latitude Longitude Course Direction KTS MPH feet Rate Location/Type
02:20PM 25.0428 -77.3794 290° West 434 499 4,800  Level Miami Center
02:21PM 25.1056 -77.3936 348° North 329 379 7,100 2,400 Climbing Miami Center
02:22PM 25.1533 -77.4650 306° West 242 278 9,700 2,460 Climbing Miami Center
02:23PM 25.1925 -77.5525 296° West 248 285 12,100 2,220 Climbing Miami Center
02:24PM 25.2339 -77.6308 300° West 278 320 14,200 1,800 Climbing Miami Center
02:25PM 25.5472 -77.8385 290° West  Level Estimated
02:25PM 25.2836 -77.7069 306° West 296 341 15,800  Level Miami Center
02:26PM 25.3564 -77.7650 324° Northwest 310 357 17,400 1,500 Climbing Miami Center
02:27PM 25.4292 -77.8253 323° Northwest 316 364 18,800 1,380 Climbing Miami Center
02:28PM 25.5042 -77.8833 325° Northwest 321 369 20,200 1,320 Climbing Miami Center
02:29PM 25.5789 -77.9461 323° Northwest 327 376 21,500 1,260 Climbing Miami Center
02:30PM 25.6536 -78.0069 324° Northwest 332 382 22,800 1,260 Climbing Miami Center
02:31PM 25.7306 -78.0675 325° Northwest 338 389 24,100 1,260 Climbing Miami Center
02:33PM 25.8800 -78.1914 323° Northwest 340 391 26,600 1,140 Climbing Miami Center
02:34PM 25.9544 -78.2547 323° Northwest 340 391 27,600 960 Climbing Miami Center
02:35PM 26.0292 -78.3181 323° Northwest 335 386 28,600 960 Climbing Miami Center
02:36PM 26.1036 -78.3767 325° Northwest 335 386 29,600 960 Climbing Miami Center
02:37PM 26.1783 -78.4378 324° Northwest 335 386 30,600 900 Climbing Miami Center
02:38PM 26.2528 -78.4992 324° Northwest 335 386 31,400 900 Climbing Miami Center
02:39PM 26.3253 -78.5603 323° Northwest 335 386 32,400 840 Climbing Miami Center
02:40PM 26.3997 -78.6242 322° Northwest 335 386 33,100 600 Climbing Miami Center
02:41PM 26.4700 -78.6761 327° Northwest 335 386 33,600 600 Climbing Miami Center
02:42PM 26.5467 -78.7425 322° Northwest 345 397 34,300 600 Climbing Miami Center
02:43PM 26.6211 -78.8039 324° Northwest 340 391 34,900 600 Climbing Miami Center
02:44PM 26.6994 -78.8681 324° Northwest 340 391 35,600 600 Climbing Miami Center
02:45PM 26.7800 -78.9347 324° Northwest 340 391 36,200 600 Climbing Miami Center
02:46PM 26.8564 -79.0011 322° Northwest 347 399 36,900 360 Climbing Miami Center
02:47PM 26.9408 -79.0703 324° Northwest 352 405 37,000  Climbing Miami Center
02:48PM 27.0233 -79.1394 323° Northwest 365 420 37,000  Level Miami Center
02:49PM 27.1183 -79.2206 323° Northwest 387 445 37,000  Level Miami Center
02:50PM 27.2089 -79.2972 323° Northwest 398 458 37,000  Level Miami Center
02:51PM 27.2933 -79.3692 323° Northwest 411 473 37,000  Level Miami Center
02:52PM 27.3858 -79.4461 324° Northwest 411 473 37,000  Level Miami Center
02:53PM 27.4886 -79.5325 323° Northwest 416 479 37,000  Level Miami Center
02:54PM 27.5853 -79.6144 323° Northwest 423 487 37,000  Level Miami Center
02:55PM 27.6717 -79.6869 323° Northwest 429 494 37,000  Level Miami Center
02:56PM 27.7661 -79.7692 322° Northwest 429 494 37,000  Level Miami Center
02:57PM 27.8583 -79.8489 323° Northwest 429 494 37,000  Level Miami Center
02:58PM 27.9650 -79.9411 323° Northwest 435 501 37,000  Level Miami Center
02:59PM 28.0592 -80.0261 321° Northwest 430 495 37,000  Level Miami Center
03:00PM 28.1472 -80.0992 324° Northwest 430 495 37,000  Level Miami Center
03:01PM 28.2433 -80.1844 322° Northwest 430 495 37,000  Level Miami Center
03:02PM 28.3478 -80.2747 323° Northwest 430 495 37,000  Level Miami Center
03:04PM 28.5736 -80.4697 323° Northwest 426 490 37,000  Level Jacksonville Center
03:05PM 28.6797 -80.5617 323° Northwest 431 496 37,000  Level Jacksonville Center
03:06PM 28.7750 -80.6472 322° Northwest 431 496 37,000  Level Jacksonville Center
03:07PM 28.8703 -80.7256 324° Northwest 426 490 37,000  Level Jacksonville Center
03:08PM 28.9819 -80.7872 334° Northwest 433 498 37,000  Level Jacksonville Center
03:09PM 29.0936 -80.8467 335° Northwest 438 504 37,000  Level Jacksonville Center
03:10PM 29.2053 -80.9086 334° Northwest 438 504 37,000  Level Jacksonville Center
03:11PM 29.3125 -80.9658 335° Northwest 428 493 37,000  Level Jacksonville Center
03:12PM 29.4200 -81.0281 333° Northwest 428 493 37,000  Level Jacksonville Center
03:13PM 29.5253 -81.0883 334° Northwest 422 486 37,000  Level Jacksonville Center
03:14PM 29.6344 -81.1483 334° Northwest 422 486 37,000  Level Jacksonville Center
03:15PM 29.7419 -81.2086 334° Northwest 422 486 37,000  Level Jacksonville Center
03:16PM 29.8492 -81.2689 334° Northwest 427 491 37,000  Level Jacksonville Center
03:17PM 29.9564 -81.3294 334° Northwest 427 491 37,000  Level Jacksonville Center
03:18PM 30.0656 -81.3878 335° Northwest 427 491 37,000  Level Jacksonville Center
03:19PM 30.1728 -81.4486 334° Northwest 427 491 37,000  Level Jacksonville Center
03:20PM 30.2797 -81.5047 336° Northwest 427 491 37,000  Level Jacksonville Center
03:21PM 30.3892 -81.5656 334° Northwest 427 491 37,000  Level Jacksonville Center
03:22PM 30.4961 -81.6269 334° Northwest 427 491 37,000  Level Jacksonville Center
03:23PM 30.6033 -81.6906 333° Northwest 427 491 37,000  Level Jacksonville Center
03:24PM 30.7083 -81.7497 334° Northwest 427 491 37,000  Level Jacksonville Center
03:25PM 30.8047 -81.8067 333° Northwest 427 491 37,000  Level Jacksonville Center
03:26PM 30.9097 -81.8683 333° Northwest 427 491 37,000  Level Jacksonville Center
03:27PM 31.0144 -81.9278 334° Northwest 427 491 37,000  Level Jacksonville Center
03:28PM 31.1172 -81.9875 334° Northwest 427 491 37,000  Level Jacksonville Center
03:29PM 31.2200 -82.0447 335° Northwest 422 486 37,000  Level Jacksonville Center
03:30PM 31.3392 -82.0753 348° North 417 480 37,000  Level Jacksonville Center
03:31PM 31.4561 -82.0961 351° North 423 487 37,000  Level Jacksonville Center
03:32PM 31.5733 -82.1219 349° North 423 487 37,000 -600 Level Jacksonville Center
03:33PM 31.7031 -82.1478 350° North 428 493 35,800 -1,680 Descending Jacksonville Center
03:34PM 31.8075 -82.1689 350° North 428 493 33,700 -2,100 Descending Jacksonville Center
03:36PM 32.0431 -82.2942 336° Northwest 402 463 29,000 -1,440 Descending Atlanta Center
03:37PM 32.1300 -82.3833 319° Northwest 402 463 29,000 -300 Level Atlanta Center
03:39PM 32.2271 -82.4831 319° Northwest  Level FlightAware Approximate
03:39PM 32.2992 -82.5547 319° Northwest 407 468 28,100  Level Atlanta Center
03:40PM 32.3922 -82.6539 318° Northwest 422 486 26,400 -1,680 Descending Atlanta Center
03:41PM 32.4828 -82.7461 319° Northwest 427 491 24,800 -1,680 Descending Atlanta Center
03:42PM 32.5694 -82.8386 318° Northwest 421 484 23,100 -1,440 Descending Atlanta Center
03:43PM 32.6558 -82.9261 320° Northwest 421 484 22,000 -600 Descending Atlanta Center
03:44PM 32.7464 -83.0164 320° Northwest 421 484 22,000 -180 Level Atlanta Center
03:45PM 32.8325 -83.1044 319° Northwest 415 478 21,700 -960 Descending Atlanta Center
03:46PM 32.9167 -83.1875 320° Northwest 410 472 20,100 -1,560 Descending Atlanta Center
03:47PM 33.0028 -83.2733 320° Northwest 404 465 18,600 -1,500 Descending Atlanta Center
03:48PM 33.0911 -83.3644 319° Northwest 393 452 17,200 -1,380 Descending Atlanta Center
03:49PM 33.1708 -83.4433 320° Northwest 379 436 15,900 3,360 Descending Atlanta Center
03:50PM 33.2464 -83.5247 318° Northwest 372 428 24,000 -1,860 Climbing Atlanta Center
03:51PM 33.3258 -83.6039 320° Northwest 367 422 12,200 -6,540 Descending Atlanta Center
03:52PM 33.3992 -83.6731 322° Northwest 351 404 11,000 -660 Descending Atlanta Center
03:53PM 33.4661 -83.7325 323° Northwest 319 367 10,900 -540 Descending Atlanta Center
03:54PM 33.5372 -83.7747 334° Northwest 290 334 10,000 -1,200 Descending Atlanta Center
03:55PM 33.6000 -83.8119 334° Northwest 284 327 8,600 -1,560 Descending Atlanta Center
03:56PM 33.6689 -83.8542 333° Northwest 277 319 6,900 -1,320 Descending Atlanta Center
03:57PM 33.7358 -83.8964 332° Northwest 277 319 6,000 -480 Descending Atlanta Center
03:58PM 33.8025 -83.9339 335° Northwest 266 306 6,000  Level Atlanta Center
03:59PM 33.8528 -83.9889 318° Northwest 259 298 6,000  Level Atlanta Center
04:01PM 33.8667 -84.1333 277° West 275 316 6,000 -480 Level Atlanta TRACON
04:02PM 33.8500 -84.2000 253° West 287 330 5,000 -600 Descending Atlanta TRACON
04:03PM 33.8167 -84.3000 248° West 230 265 4,900 -420 Descending Atlanta TRACON
04:04PM 33.8000 -84.3500 248° West 211 243 4,200 -1,020 Descending Atlanta TRACON
04:05PM 33.8000 -84.4167 270° West 187 215 2,900 -1,320 Descending Atlanta TRACON
04:06PM 33.7833 -84.4833 253° West 164 189 1,800 -1,260 Descending Atlanta TRACON
04:08PM 33.7667 -84.5167 231° Southwest  Level FlightAware Approximate
04:15PM 33.7791 -84.5214 231° Southwest  Level Estimated